sensor_id;sensor_type;location;lat;lon;timestamp;P1;durP1;ratioP1;P2;durP2;ratioP2
51883;SDS011;37915;53.254;6.598;2022-12-29T00:01:02;4.18;;;2.80;;
51883;SDS011;37915;53.254;6.598;2022-12-29T00:03:28;5.22;;;3.33;;
51883;SDS011;37915;53.254;6.598;2022-12-29T00:05:54;5.22;;;3.60;;
51883;SDS011;37915;53.254;6.598;2022-12-29T00:08:21;4.78;;;3.20;;
51883;SDS011;37915;53.254;6.598;2022-12-29T00:11:04;3.95;;;2.13;;
51883;SDS011;37915;53.254;6.598;2022-12-29T00:13:37;5.57;;;2.95;;
51883;SDS011;37915;53.254;6.598;2022-12-29T00:16:22;4.90;;;3.28;;
51883;SDS011;37915;53.254;6.598;2022-12-29T00:18:48;6.70;;;3.05;;
51883;SDS011;37915;53.254;6.598;2022-12-29T00:21:14;4.60;;;3.08;;
51883;SDS011;37915;53.254;6.598;2022-12-29T00:23:59;4.40;;;2.92;;
51883;SDS011;37915;53.254;6.598;2022-12-29T00:26:44;6.07;;;3.30;;
51883;SDS011;37915;53.254;6.598;2022-12-29T00:29:30;4.40;;;3.20;;
51883;SDS011;37915;53.254;6.598;2022-12-29T00:32:14;5.13;;;2.60;;
51883;SDS011;37915;53.254;6.598;2022-12-29T00:34:58;4.85;;;2.45;;
51883;SDS011;37915;53.254;6.598;2022-12-29T00:37:33;4.00;;;2.50;;
51883;SDS011;37915;53.254;6.598;2022-12-29T00:40:23;3.70;;;2.50;;
51883;SDS011;37915;53.254;6.598;2022-12-29T00:43:07;3.67;;;2.38;;
51883;SDS011;37915;53.254;6.598;2022-12-29T00:45:51;5.28;;;3.25;;
51883;SDS011;37915;53.254;6.598;2022-12-29T00:48:17;4.60;;;2.75;;
51883;SDS011;37915;53.254;6.598;2022-12-29T00:51:05;5.05;;;2.67;;
51883;SDS011;37915;53.254;6.598;2022-12-29T00:53:31;4.95;;;2.70;;
51883;SDS011;37915;53.254;6.598;2022-12-29T00:55:57;4.20;;;2.60;;
51883;SDS011;37915;53.254;6.598;2022-12-29T00:58:23;6.25;;;3.50;;
51883;SDS011;37915;53.254;6.598;2022-12-29T01:00:49;4.68;;;2.78;;
51883;SDS011;37915;53.254;6.598;2022-12-29T01:03:14;5.32;;;3.10;;
51883;SDS011;37915;53.254;6.598;2022-12-29T01:05:40;7.85;;;3.28;;
51883;SDS011;37915;53.254;6.598;2022-12-29T01:08:05;5.13;;;3.17;;
51883;SDS011;37915;53.254;6.598;2022-12-29T01:10:31;5.95;;;3.35;;
51883;SDS011;37915;53.254;6.598;2022-12-29T01:12:57;3.67;;;2.33;;
51883;SDS011;37915;53.254;6.598;2022-12-29T01:15:22;4.68;;;2.90;;
51883;SDS011;37915;53.254;6.598;2022-12-29T01:17:48;4.25;;;2.70;;
51883;SDS011;37915;53.254;6.598;2022-12-29T01:20:14;4.40;;;2.83;;
51883;SDS011;37915;53.254;6.598;2022-12-29T01:22:39;5.25;;;2.85;;
51883;SDS011;37915;53.254;6.598;2022-12-29T01:25:07;5.70;;;3.17;;
51883;SDS011;37915;53.254;6.598;2022-12-29T01:27:33;4.35;;;2.65;;
51883;SDS011;37915;53.254;6.598;2022-12-29T01:29:58;6.28;;;2.95;;
51883;SDS011;37915;53.254;6.598;2022-12-29T01:32:24;5.88;;;3.55;;
51883;SDS011;37915;53.254;6.598;2022-12-29T01:34:50;5.88;;;3.60;;
51883;SDS011;37915;53.254;6.598;2022-12-29T01:37:15;5.20;;;3.20;;
51883;SDS011;37915;53.254;6.598;2022-12-29T01:39:41;4.55;;;3.00;;
51883;SDS011;37915;53.254;6.598;2022-12-29T01:42:11;5.55;;;3.65;;
51883;SDS011;37915;53.254;6.598;2022-12-29T01:44:49;5.30;;;3.33;;
51883;SDS011;37915;53.254;6.598;2022-12-29T01:49:45;4.68;;;3.70;;
51883;SDS011;37915;53.254;6.598;2022-12-29T01:52:11;6.00;;;2.85;;
51883;SDS011;37915;53.254;6.598;2022-12-29T01:54:43;6.80;;;3.45;;
51883;SDS011;37915;53.254;6.598;2022-12-29T01:57:19;6.43;;;3.72;;
51883;SDS011;37915;53.254;6.598;2022-12-29T01:59:50;5.15;;;3.08;;
51883;SDS011;37915;53.254;6.598;2022-12-29T02:02:23;7.13;;;3.53;;
51883;SDS011;37915;53.254;6.598;2022-12-29T02:04:49;5.13;;;3.45;;
51883;SDS011;37915;53.254;6.598;2022-12-29T02:07:19;10.48;;;3.47;;
51883;SDS011;37915;53.254;6.598;2022-12-29T02:09:47;5.65;;;3.60;;
51883;SDS011;37915;53.254;6.598;2022-12-29T02:12:18;4.82;;;2.95;;
51883;SDS011;37915;53.254;6.598;2022-12-29T02:14:46;6.13;;;4.10;;
51883;SDS011;37915;53.254;6.598;2022-12-29T02:20:20;5.80;;;3.40;;
51883;SDS011;37915;53.254;6.598;2022-12-29T02:31:10;5.82;;;3.10;;
51883;SDS011;37915;53.254;6.598;2022-12-29T02:36:43;6.75;;;2.45;;
51883;SDS011;37915;53.254;6.598;2022-12-29T02:39:21;4.78;;;2.75;;
51883;SDS011;37915;53.254;6.598;2022-12-29T02:44:55;6.90;;;2.75;;
51883;SDS011;37915;53.254;6.598;2022-12-29T02:47:48;4.55;;;2.50;;
51883;SDS011;37915;53.254;6.598;2022-12-29T02:50:35;4.65;;;2.28;;
51883;SDS011;37915;53.254;6.598;2022-12-29T02:53:13;5.93;;;2.10;;
51883;SDS011;37915;53.254;6.598;2022-12-29T02:55:49;5.93;;;2.65;;
51883;SDS011;37915;53.254;6.598;2022-12-29T03:00:45;4.40;;;1.90;;
51883;SDS011;37915;53.254;6.598;2022-12-29T03:03:28;6.80;;;2.55;;
51883;SDS011;37915;53.254;6.598;2022-12-29T03:06:16;5.18;;;2.20;;
51883;SDS011;37915;53.254;6.598;2022-12-29T03:09:05;3.45;;;1.83;;
51883;SDS011;37915;53.254;6.598;2022-12-29T03:11:53;5.32;;;2.10;;
51883;SDS011;37915;53.254;6.598;2022-12-29T03:14:47;4.13;;;1.83;;
51883;SDS011;37915;53.254;6.598;2022-12-29T03:20:06;3.60;;;2.00;;
51883;SDS011;37915;53.254;6.598;2022-12-29T03:22:34;3.83;;;2.25;;
51883;SDS011;37915;53.254;6.598;2022-12-29T03:25:17;3.22;;;1.63;;
51883;SDS011;37915;53.254;6.598;2022-12-29T03:28:06;5.40;;;1.83;;
51883;SDS011;37915;53.254;6.598;2022-12-29T03:30:36;4.75;;;1.80;;
51883;SDS011;37915;53.254;6.598;2022-12-29T03:33:07;4.15;;;2.05;;
51883;SDS011;37915;53.254;6.598;2022-12-29T03:35:36;3.92;;;1.80;;
51883;SDS011;37915;53.254;6.598;2022-12-29T03:38:12;3.17;;;1.50;;
51883;SDS011;37915;53.254;6.598;2022-12-29T03:40:43;4.80;;;1.70;;
51883;SDS011;37915;53.254;6.598;2022-12-29T03:43:12;4.90;;;1.55;;
51883;SDS011;37915;53.254;6.598;2022-12-29T03:45:38;5.50;;;1.70;;
51883;SDS011;37915;53.254;6.598;2022-12-29T03:48:04;4.57;;;1.55;;
51883;SDS011;37915;53.254;6.598;2022-12-29T03:50:30;3.75;;;1.45;;
51883;SDS011;37915;53.254;6.598;2022-12-29T03:52:55;4.47;;;1.70;;
51883;SDS011;37915;53.254;6.598;2022-12-29T03:55:21;3.67;;;1.63;;
51883;SDS011;37915;53.254;6.598;2022-12-29T03:57:47;6.05;;;1.60;;
51883;SDS011;37915;53.254;6.598;2022-12-29T04:00:12;5.72;;;1.65;;
51883;SDS011;37915;53.254;6.598;2022-12-29T04:02:39;3.30;;;1.45;;
51883;SDS011;37915;53.254;6.598;2022-12-29T04:05:04;4.00;;;1.50;;
51883;SDS011;37915;53.254;6.598;2022-12-29T04:07:31;3.60;;;1.63;;
51883;SDS011;37915;53.254;6.598;2022-12-29T04:09:56;3.97;;;1.60;;
51883;SDS011;37915;53.254;6.598;2022-12-29T04:12:22;3.47;;;1.90;;
51883;SDS011;37915;53.254;6.598;2022-12-29T04:14:48;3.85;;;1.60;;
51883;SDS011;37915;53.254;6.598;2022-12-29T04:17:13;6.72;;;1.77;;
51883;SDS011;37915;53.254;6.598;2022-12-29T04:19:39;4.75;;;1.50;;
51883;SDS011;37915;53.254;6.598;2022-12-29T04:22:04;6.40;;;2.17;;
51883;SDS011;37915;53.254;6.598;2022-12-29T04:24:30;2.65;;;1.30;;
51883;SDS011;37915;53.254;6.598;2022-12-29T04:26:56;3.72;;;1.60;;
51883;SDS011;37915;53.254;6.598;2022-12-29T04:29:21;4.05;;;1.48;;
51883;SDS011;37915;53.254;6.598;2022-12-29T04:31:47;7.70;;;1.80;;
51883;SDS011;37915;53.254;6.598;2022-12-29T04:34:13;3.22;;;1.52;;
51883;SDS011;37915;53.254;6.598;2022-12-29T04:36:39;2.67;;;1.20;;
51883;SDS011;37915;53.254;6.598;2022-12-29T04:39:05;2.90;;;1.30;;
51883;SDS011;37915;53.254;6.598;2022-12-29T04:41:31;4.75;;;1.60;;
51883;SDS011;37915;53.254;6.598;2022-12-29T04:43:57;6.15;;;1.45;;
51883;SDS011;37915;53.254;6.598;2022-12-29T04:46:23;4.05;;;1.20;;
51883;SDS011;37915;53.254;6.598;2022-12-29T04:48:48;5.68;;;1.42;;
51883;SDS011;37915;53.254;6.598;2022-12-29T04:51:14;6.53;;;1.48;;
51883;SDS011;37915;53.254;6.598;2022-12-29T04:53:40;6.50;;;1.63;;
51883;SDS011;37915;53.254;6.598;2022-12-29T04:56:06;3.83;;;1.38;;
51883;SDS011;37915;53.254;6.598;2022-12-29T04:58:32;4.93;;;1.50;;
51883;SDS011;37915;53.254;6.598;2022-12-29T05:00:58;7.38;;;1.95;;
51883;SDS011;37915;53.254;6.598;2022-12-29T05:03:24;4.85;;;1.83;;
51883;SDS011;37915;53.254;6.598;2022-12-29T05:05:52;11.10;;;1.58;;
51883;SDS011;37915;53.254;6.598;2022-12-29T05:08:19;4.80;;;1.30;;
51883;SDS011;37915;53.254;6.598;2022-12-29T05:10:45;8.65;;;1.90;;
51883;SDS011;37915;53.254;6.598;2022-12-29T05:13:11;5.95;;;1.48;;
51883;SDS011;37915;53.254;6.598;2022-12-29T05:15:37;4.93;;;1.40;;
51883;SDS011;37915;53.254;6.598;2022-12-29T05:18:02;7.35;;;1.60;;
51883;SDS011;37915;53.254;6.598;2022-12-29T05:20:28;6.55;;;1.38;;
51883;SDS011;37915;53.254;6.598;2022-12-29T05:22:54;10.60;;;2.42;;
51883;SDS011;37915;53.254;6.598;2022-12-29T05:25:19;10.10;;;2.00;;
51883;SDS011;37915;53.254;6.598;2022-12-29T05:27:45;8.75;;;1.90;;
51883;SDS011;37915;53.254;6.598;2022-12-29T05:30:11;7.97;;;1.90;;
51883;SDS011;37915;53.254;6.598;2022-12-29T05:32:37;6.10;;;1.90;;
51883;SDS011;37915;53.254;6.598;2022-12-29T05:35:03;6.85;;;2.13;;
51883;SDS011;37915;53.254;6.598;2022-12-29T05:37:29;8.93;;;2.10;;
51883;SDS011;37915;53.254;6.598;2022-12-29T05:39:54;7.57;;;2.08;;
51883;SDS011;37915;53.254;6.598;2022-12-29T05:42:20;9.05;;;2.13;;
51883;SDS011;37915;53.254;6.598;2022-12-29T05:44:46;8.60;;;2.28;;
51883;SDS011;37915;53.254;6.598;2022-12-29T05:47:15;8.77;;;1.90;;
51883;SDS011;37915;53.254;6.598;2022-12-29T05:49:40;9.38;;;1.92;;
51883;SDS011;37915;53.254;6.598;2022-12-29T05:52:06;9.48;;;2.17;;
51883;SDS011;37915;53.254;6.598;2022-12-29T05:54:32;8.20;;;1.80;;
51883;SDS011;37915;53.254;6.598;2022-12-29T05:56:57;8.77;;;2.33;;
51883;SDS011;37915;53.254;6.598;2022-12-29T05:59:23;5.88;;;2.45;;
51883;SDS011;37915;53.254;6.598;2022-12-29T06:01:49;8.13;;;2.25;;
51883;SDS011;37915;53.254;6.598;2022-12-29T06:04:14;7.68;;;2.35;;
51883;SDS011;37915;53.254;6.598;2022-12-29T06:06:40;8.73;;;3.15;;
51883;SDS011;37915;53.254;6.598;2022-12-29T06:09:06;10.85;;;2.15;;
51883;SDS011;37915;53.254;6.598;2022-12-29T06:11:34;9.07;;;2.28;;
51883;SDS011;37915;53.254;6.598;2022-12-29T06:14:00;9.80;;;2.50;;
51883;SDS011;37915;53.254;6.598;2022-12-29T06:16:25;8.13;;;2.65;;
51883;SDS011;37915;53.254;6.598;2022-12-29T06:18:51;6.78;;;2.10;;
51883;SDS011;37915;53.254;6.598;2022-12-29T06:21:17;10.48;;;2.45;;
51883;SDS011;37915;53.254;6.598;2022-12-29T06:23:42;8.57;;;2.45;;
51883;SDS011;37915;53.254;6.598;2022-12-29T06:26:08;5.80;;;2.53;;
51883;SDS011;37915;53.254;6.598;2022-12-29T06:28:34;9.10;;;2.25;;
51883;SDS011;37915;53.254;6.598;2022-12-29T06:30:59;12.15;;;2.53;;
51883;SDS011;37915;53.254;6.598;2022-12-29T06:33:27;7.15;;;2.47;;
51883;SDS011;37915;53.254;6.598;2022-12-29T06:35:53;7.57;;;2.47;;
51883;SDS011;37915;53.254;6.598;2022-12-29T06:38:19;12.90;;;3.33;;
51883;SDS011;37915;53.254;6.598;2022-12-29T06:40:45;13.18;;;2.58;;
51883;SDS011;37915;53.254;6.598;2022-12-29T06:43:10;15.27;;;3.08;;
51883;SDS011;37915;53.254;6.598;2022-12-29T06:45:39;10.63;;;2.38;;
51883;SDS011;37915;53.254;6.598;2022-12-29T06:48:08;10.77;;;2.40;;
51883;SDS011;37915;53.254;6.598;2022-12-29T06:50:34;7.35;;;2.92;;
51883;SDS011;37915;53.254;6.598;2022-12-29T06:53:00;12.60;;;2.88;;
51883;SDS011;37915;53.254;6.598;2022-12-29T06:55:25;12.27;;;1.73;;
51883;SDS011;37915;53.254;6.598;2022-12-29T06:57:53;15.07;;;3.38;;
51883;SDS011;37915;53.254;6.598;2022-12-29T07:00:20;14.13;;;2.45;;
51883;SDS011;37915;53.254;6.598;2022-12-29T07:02:54;10.57;;;2.50;;
51883;SDS011;37915;53.254;6.598;2022-12-29T07:05:23;12.02;;;2.53;;
51883;SDS011;37915;53.254;6.598;2022-12-29T07:07:50;6.47;;;2.17;;
51883;SDS011;37915;53.254;6.598;2022-12-29T07:10:17;13.07;;;2.17;;
51883;SDS011;37915;53.254;6.598;2022-12-29T07:12:42;10.13;;;3.13;;
51883;SDS011;37915;53.254;6.598;2022-12-29T07:15:08;8.13;;;2.20;;
51883;SDS011;37915;53.254;6.598;2022-12-29T07:17:34;8.98;;;2.30;;
51883;SDS011;37915;53.254;6.598;2022-12-29T07:20:00;9.20;;;1.98;;
51883;SDS011;37915;53.254;6.598;2022-12-29T07:22:25;8.02;;;2.53;;
51883;SDS011;37915;53.254;6.598;2022-12-29T07:24:51;12.70;;;2.95;;
51883;SDS011;37915;53.254;6.598;2022-12-29T07:27:17;10.80;;;2.80;;
51883;SDS011;37915;53.254;6.598;2022-12-29T07:29:43;15.73;;;2.90;;
51883;SDS011;37915;53.254;6.598;2022-12-29T07:32:08;10.63;;;2.60;;
51883;SDS011;37915;53.254;6.598;2022-12-29T07:34:35;15.25;;;2.70;;
51883;SDS011;37915;53.254;6.598;2022-12-29T07:37:01;12.75;;;2.03;;
51883;SDS011;37915;53.254;6.598;2022-12-29T07:39:26;8.88;;;2.25;;
51883;SDS011;37915;53.254;6.598;2022-12-29T07:41:52;12.55;;;2.55;;
51883;SDS011;37915;53.254;6.598;2022-12-29T07:44:18;9.68;;;2.45;;
51883;SDS011;37915;53.254;6.598;2022-12-29T07:46:43;11.80;;;2.45;;
51883;SDS011;37915;53.254;6.598;2022-12-29T07:49:09;9.55;;;2.58;;
51883;SDS011;37915;53.254;6.598;2022-12-29T07:51:34;14.55;;;2.78;;
51883;SDS011;37915;53.254;6.598;2022-12-29T07:54:00;12.10;;;2.50;;
51883;SDS011;37915;53.254;6.598;2022-12-29T07:56:26;7.88;;;2.13;;
51883;SDS011;37915;53.254;6.598;2022-12-29T07:58:52;12.02;;;2.22;;
51883;SDS011;37915;53.254;6.598;2022-12-29T08:01:17;11.05;;;2.55;;
51883;SDS011;37915;53.254;6.598;2022-12-29T08:03:44;10.50;;;2.47;;
51883;SDS011;37915;53.254;6.598;2022-12-29T08:06:10;13.65;;;2.05;;
51883;SDS011;37915;53.254;6.598;2022-12-29T08:08:37;9.52;;;2.33;;
51883;SDS011;37915;53.254;6.598;2022-12-29T08:11:03;8.32;;;2.63;;
51883;SDS011;37915;53.254;6.598;2022-12-29T08:13:29;16.15;;;2.63;;
51883;SDS011;37915;53.254;6.598;2022-12-29T08:15:54;9.25;;;2.97;;
51883;SDS011;37915;53.254;6.598;2022-12-29T08:18:22;7.13;;;2.50;;
51883;SDS011;37915;53.254;6.598;2022-12-29T08:20:47;13.05;;;2.42;;
51883;SDS011;37915;53.254;6.598;2022-12-29T08:23:13;9.70;;;2.38;;
51883;SDS011;37915;53.254;6.598;2022-12-29T08:25:39;15.52;;;2.83;;
51883;SDS011;37915;53.254;6.598;2022-12-29T08:28:04;11.30;;;3.22;;
51883;SDS011;37915;53.254;6.598;2022-12-29T08:30:30;11.52;;;2.45;;
51883;SDS011;37915;53.254;6.598;2022-12-29T08:32:56;10.13;;;2.15;;
51883;SDS011;37915;53.254;6.598;2022-12-29T08:35:21;8.95;;;2.45;;
51883;SDS011;37915;53.254;6.598;2022-12-29T08:37:47;9.75;;;2.67;;
51883;SDS011;37915;53.254;6.598;2022-12-29T08:40:13;12.45;;;3.55;;
51883;SDS011;37915;53.254;6.598;2022-12-29T08:42:38;16.63;;;3.60;;
51883;SDS011;37915;53.254;6.598;2022-12-29T08:45:05;10.25;;;3.03;;
51883;SDS011;37915;53.254;6.598;2022-12-29T08:47:31;12.45;;;3.75;;
51883;SDS011;37915;53.254;6.598;2022-12-29T08:49:57;8.30;;;2.53;;
51883;SDS011;37915;53.254;6.598;2022-12-29T08:52:26;12.15;;;3.28;;
51883;SDS011;37915;53.254;6.598;2022-12-29T08:54:51;9.63;;;2.30;;
51883;SDS011;37915;53.254;6.598;2022-12-29T08:57:17;12.55;;;2.47;;
51883;SDS011;37915;53.254;6.598;2022-12-29T08:59:43;10.40;;;2.92;;
51883;SDS011;37915;53.254;6.598;2022-12-29T09:02:11;10.07;;;2.63;;
51883;SDS011;37915;53.254;6.598;2022-12-29T09:04:37;11.77;;;3.08;;
51883;SDS011;37915;53.254;6.598;2022-12-29T09:07:03;18.58;;;3.08;;
51883;SDS011;37915;53.254;6.598;2022-12-29T09:09:30;12.45;;;2.58;;
51883;SDS011;37915;53.254;6.598;2022-12-29T09:11:56;13.20;;;3.67;;
51883;SDS011;37915;53.254;6.598;2022-12-29T09:14:22;14.02;;;3.45;;
51883;SDS011;37915;53.254;6.598;2022-12-29T09:16:50;17.67;;;3.72;;
51883;SDS011;37915;53.254;6.598;2022-12-29T09:19:35;13.02;;;3.78;;
51883;SDS011;37915;53.254;6.598;2022-12-29T09:22:00;14.27;;;3.50;;
51883;SDS011;37915;53.254;6.598;2022-12-29T09:24:26;14.57;;;3.88;;
51883;SDS011;37915;53.254;6.598;2022-12-29T09:26:52;21.75;;;3.20;;
51883;SDS011;37915;53.254;6.598;2022-12-29T09:29:17;15.20;;;3.08;;
51883;SDS011;37915;53.254;6.598;2022-12-29T09:31:43;11.75;;;3.63;;
51883;SDS011;37915;53.254;6.598;2022-12-29T09:34:08;15.68;;;3.80;;
51883;SDS011;37915;53.254;6.598;2022-12-29T09:36:34;14.50;;;3.05;;
51883;SDS011;37915;53.254;6.598;2022-12-29T09:39:00;15.25;;;3.50;;
51883;SDS011;37915;53.254;6.598;2022-12-29T09:41:26;13.88;;;3.70;;
51883;SDS011;37915;53.254;6.598;2022-12-29T09:44:22;10.88;;;2.38;;
51883;SDS011;37915;53.254;6.598;2022-12-29T09:46:55;10.63;;;2.90;;
51883;SDS011;37915;53.254;6.598;2022-12-29T09:49:29;8.18;;;2.53;;
51883;SDS011;37915;53.254;6.598;2022-12-29T09:52:06;9.90;;;2.70;;
51883;SDS011;37915;53.254;6.598;2022-12-29T10:00:12;10.18;;;3.22;;
51883;SDS011;37915;53.254;6.598;2022-12-29T10:03:02;9.95;;;2.47;;
51883;SDS011;37915;53.254;6.598;2022-12-29T10:11:10;9.75;;;2.92;;
51883;SDS011;37915;53.254;6.598;2022-12-29T10:13:58;6.72;;;2.22;;
51883;SDS011;37915;53.254;6.598;2022-12-29T10:16:49;11.57;;;2.53;;
51883;SDS011;37915;53.254;6.598;2022-12-29T10:19:27;9.27;;;2.30;;
51883;SDS011;37915;53.254;6.598;2022-12-29T10:24:53;11.75;;;2.72;;
51883;SDS011;37915;53.254;6.598;2022-12-29T10:27:21;8.48;;;1.80;;
51883;SDS011;37915;53.254;6.598;2022-12-29T10:29:53;11.07;;;2.38;;
51883;SDS011;37915;53.254;6.598;2022-12-29T10:32:24;13.90;;;2.87;;
51883;SDS011;37915;53.254;6.598;2022-12-29T10:35:21;10.15;;;2.28;;
51883;SDS011;37915;53.254;6.598;2022-12-29T10:43:33;11.13;;;2.78;;
51883;SDS011;37915;53.254;6.598;2022-12-29T10:46:02;6.45;;;2.40;;
51883;SDS011;37915;53.254;6.598;2022-12-29T10:48:32;9.60;;;2.78;;
51883;SDS011;37915;53.254;6.598;2022-12-29T10:50:59;8.32;;;2.38;;
51883;SDS011;37915;53.254;6.598;2022-12-29T10:53:46;7.93;;;2.45;;
51883;SDS011;37915;53.254;6.598;2022-12-29T10:56:36;10.05;;;3.83;;
51883;SDS011;37915;53.254;6.598;2022-12-29T11:07:36;13.80;;;3.22;;
51883;SDS011;37915;53.254;6.598;2022-12-29T11:10:19;14.00;;;3.88;;
51883;SDS011;37915;53.254;6.598;2022-12-29T11:12:58;22.83;;;3.40;;
51883;SDS011;37915;53.254;6.598;2022-12-29T11:15:39;17.02;;;3.35;;
51883;SDS011;37915;53.254;6.598;2022-12-29T11:18:17;20.58;;;4.07;;
51883;SDS011;37915;53.254;6.598;2022-12-29T11:20:45;14.63;;;3.17;;
51883;SDS011;37915;53.254;6.598;2022-12-29T11:23:23;15.60;;;3.53;;
51883;SDS011;37915;53.254;6.598;2022-12-29T11:26:24;13.60;;;3.90;;
51883;SDS011;37915;53.254;6.598;2022-12-29T11:29:08;24.98;;;4.75;;
51883;SDS011;37915;53.254;6.598;2022-12-29T11:31:42;13.20;;;4.38;;
51883;SDS011;37915;53.254;6.598;2022-12-29T11:34:16;19.23;;;4.28;;
51883;SDS011;37915;53.254;6.598;2022-12-29T11:37:01;12.85;;;3.75;;
51883;SDS011;37915;53.254;6.598;2022-12-29T11:42:23;14.90;;;4.22;;
51883;SDS011;37915;53.254;6.598;2022-12-29T11:45:03;17.38;;;3.78;;
51883;SDS011;37915;53.254;6.598;2022-12-29T11:47:32;13.15;;;3.67;;
51883;SDS011;37915;53.254;6.598;2022-12-29T11:50:03;10.55;;;3.35;;
51883;SDS011;37915;53.254;6.598;2022-12-29T11:55:00;21.73;;;3.80;;
51883;SDS011;37915;53.254;6.598;2022-12-29T11:57:28;21.10;;;3.60;;
51883;SDS011;37915;53.254;6.598;2022-12-29T11:59:58;16.52;;;3.65;;
51883;SDS011;37915;53.254;6.598;2022-12-29T12:05:13;15.57;;;4.00;;
51883;SDS011;37915;53.254;6.598;2022-12-29T12:07:45;15.95;;;4.63;;
51883;SDS011;37915;53.254;6.598;2022-12-29T12:15:37;17.90;;;3.70;;
51883;SDS011;37915;53.254;6.598;2022-12-29T12:18:18;17.75;;;3.67;;
51883;SDS011;37915;53.254;6.598;2022-12-29T12:20:54;12.35;;;3.58;;
51883;SDS011;37915;53.254;6.598;2022-12-29T12:28:36;11.80;;;3.53;;
51883;SDS011;37915;53.254;6.598;2022-12-29T12:31:21;12.00;;;3.13;;
51883;SDS011;37915;53.254;6.598;2022-12-29T12:33:59;14.77;;;2.50;;
51883;SDS011;37915;53.254;6.598;2022-12-29T12:36:41;11.32;;;3.03;;
51883;SDS011;37915;53.254;6.598;2022-12-29T12:42:18;8.80;;;3.03;;
51883;SDS011;37915;53.254;6.598;2022-12-29T12:48:00;12.35;;;3.10;;
51883;SDS011;37915;53.254;6.598;2022-12-29T12:56:32;7.35;;;2.70;;
51883;SDS011;37915;53.254;6.598;2022-12-29T13:00:12;9.27;;;2.35;;
51883;SDS011;37915;53.254;6.598;2022-12-29T13:05:20;9.38;;;2.67;;
51883;SDS011;37915;53.254;6.598;2022-12-29T13:13:48;12.18;;;3.20;;
51883;SDS011;37915;53.254;6.598;2022-12-29T13:24:56;9.93;;;2.17;;
51883;SDS011;37915;53.254;6.598;2022-12-29T13:27:55;10.52;;;2.50;;
51883;SDS011;37915;53.254;6.598;2022-12-29T13:30:49;9.70;;;2.35;;
51883;SDS011;37915;53.254;6.598;2022-12-29T13:35:55;7.63;;;2.00;;
51883;SDS011;37915;53.254;6.598;2022-12-29T13:38:48;10.05;;;2.35;;
51883;SDS011;37915;53.254;6.598;2022-12-29T13:43:46;8.75;;;2.92;;
51883;SDS011;37915;53.254;6.598;2022-12-29T13:46:14;10.23;;;2.00;;
51883;SDS011;37915;53.254;6.598;2022-12-29T13:48:50;9.73;;;2.50;;
51883;SDS011;37915;53.254;6.598;2022-12-29T13:51:24;9.57;;;2.28;;
51883;SDS011;37915;53.254;6.598;2022-12-29T13:54:03;6.38;;;2.03;;
51883;SDS011;37915;53.254;6.598;2022-12-29T14:02:09;7.40;;;2.25;;
51883;SDS011;37915;53.254;6.598;2022-12-29T14:04:58;13.60;;;2.53;;
51883;SDS011;37915;53.254;6.598;2022-12-29T14:07:26;6.47;;;1.98;;
51883;SDS011;37915;53.254;6.598;2022-12-29T14:09:53;9.45;;;2.05;;
51883;SDS011;37915;53.254;6.598;2022-12-29T14:12:26;11.27;;;2.10;;
51883;SDS011;37915;53.254;6.598;2022-12-29T14:14:53;6.75;;;2.05;;
51883;SDS011;37915;53.254;6.598;2022-12-29T14:17:20;9.23;;;2.17;;
51883;SDS011;37915;53.254;6.598;2022-12-29T14:19:46;11.15;;;2.05;;
51883;SDS011;37915;53.254;6.598;2022-12-29T14:22:22;7.47;;;1.83;;
51883;SDS011;37915;53.254;6.598;2022-12-29T14:24:52;6.35;;;2.20;;
51883;SDS011;37915;53.254;6.598;2022-12-29T14:29:44;12.40;;;2.28;;
51883;SDS011;37915;53.254;6.598;2022-12-29T14:34:57;13.60;;;3.42;;
51883;SDS011;37915;53.254;6.598;2022-12-29T14:37:25;5.88;;;1.90;;
51883;SDS011;37915;53.254;6.598;2022-12-29T14:42:48;13.68;;;2.58;;
51883;SDS011;37915;53.254;6.598;2022-12-29T14:50:18;13.45;;;3.13;;
51883;SDS011;37915;53.254;6.598;2022-12-29T15:00:58;6.95;;;2.20;;
51883;SDS011;37915;53.254;6.598;2022-12-29T15:05:55;15.23;;;3.15;;
51883;SDS011;37915;53.254;6.598;2022-12-29T15:08:26;10.82;;;2.80;;
51883;SDS011;37915;53.254;6.598;2022-12-29T15:13:32;10.43;;;2.40;;
51883;SDS011;37915;53.254;6.598;2022-12-29T15:16:02;12.02;;;2.85;;
51883;SDS011;37915;53.254;6.598;2022-12-29T15:18:29;9.30;;;2.38;;
51883;SDS011;37915;53.254;6.598;2022-12-29T15:21:00;14.68;;;3.00;;
51883;SDS011;37915;53.254;6.598;2022-12-29T15:23:31;12.80;;;2.80;;
51883;SDS011;37915;53.254;6.598;2022-12-29T15:26:04;10.63;;;2.50;;
51883;SDS011;37915;53.254;6.598;2022-12-29T15:28:50;9.25;;;2.80;;
51883;SDS011;37915;53.254;6.598;2022-12-29T15:31:21;9.95;;;2.30;;
51883;SDS011;37915;53.254;6.598;2022-12-29T15:33:52;11.95;;;2.90;;
51883;SDS011;37915;53.254;6.598;2022-12-29T15:36:20;16.52;;;3.05;;
51883;SDS011;37915;53.254;6.598;2022-12-29T15:38:50;11.27;;;2.35;;
51883;SDS011;37915;53.254;6.598;2022-12-29T15:47:05;11.52;;;2.30;;
51883;SDS011;37915;53.254;6.598;2022-12-29T15:49:43;11.32;;;2.85;;
51883;SDS011;37915;53.254;6.598;2022-12-29T15:52:13;9.18;;;2.60;;
51883;SDS011;37915;53.254;6.598;2022-12-29T15:54:50;10.93;;;2.28;;
51883;SDS011;37915;53.254;6.598;2022-12-29T15:57:41;11.75;;;2.67;;
51883;SDS011;37915;53.254;6.598;2022-12-29T16:00:23;13.38;;;2.92;;
51883;SDS011;37915;53.254;6.598;2022-12-29T16:05:17;12.75;;;3.25;;
51883;SDS011;37915;53.254;6.598;2022-12-29T16:07:56;12.23;;;3.25;;
51883;SDS011;37915;53.254;6.598;2022-12-29T16:13:16;11.88;;;3.67;;
51883;SDS011;37915;53.254;6.598;2022-12-29T16:15:47;12.75;;;2.58;;
51883;SDS011;37915;53.254;6.598;2022-12-29T16:18:20;8.23;;;2.13;;
51883;SDS011;37915;53.254;6.598;2022-12-29T16:20:57;10.00;;;2.85;;
51883;SDS011;37915;53.254;6.598;2022-12-29T16:23:27;12.02;;;3.00;;
51883;SDS011;37915;53.254;6.598;2022-12-29T16:25:55;12.95;;;2.65;;
51883;SDS011;37915;53.254;6.598;2022-12-29T16:28:35;16.25;;;2.60;;
51883;SDS011;37915;53.254;6.598;2022-12-29T16:31:14;18.17;;;2.70;;
51883;SDS011;37915;53.254;6.598;2022-12-29T16:33:46;9.52;;;2.33;;
51883;SDS011;37915;53.254;6.598;2022-12-29T16:36:27;8.63;;;2.33;;
51883;SDS011;37915;53.254;6.598;2022-12-29T16:39:11;6.65;;;2.00;;
51883;SDS011;37915;53.254;6.598;2022-12-29T16:42:54;7.57;;;2.30;;
51883;SDS011;37915;53.254;6.598;2022-12-29T16:44:57;10.30;;;2.75;;
51883;SDS011;37915;53.254;6.598;2022-12-29T16:47:41;5.97;;;2.13;;
51883;SDS011;37915;53.254;6.598;2022-12-29T16:50:11;9.68;;;2.45;;
51883;SDS011;37915;53.254;6.598;2022-12-29T16:52:42;9.55;;;2.60;;
51883;SDS011;37915;53.254;6.598;2022-12-29T16:55:14;5.97;;;2.15;;
51883;SDS011;37915;53.254;6.598;2022-12-29T16:57:41;9.38;;;2.42;;
51883;SDS011;37915;53.254;6.598;2022-12-29T17:00:19;9.50;;;2.75;;
51883;SDS011;37915;53.254;6.598;2022-12-29T17:02:46;6.05;;;2.17;;
51883;SDS011;37915;53.254;6.598;2022-12-29T17:05:15;5.13;;;1.83;;
51883;SDS011;37915;53.254;6.598;2022-12-29T17:07:42;8.48;;;2.10;;
51883;SDS011;37915;53.254;6.598;2022-12-29T17:10:09;6.50;;;1.63;;
51883;SDS011;37915;53.254;6.598;2022-12-29T17:12:35;4.28;;;1.85;;
51883;SDS011;37915;53.254;6.598;2022-12-29T17:15:03;4.25;;;2.03;;
51883;SDS011;37915;53.254;6.598;2022-12-29T17:17:40;4.95;;;1.52;;
51883;SDS011;37915;53.254;6.598;2022-12-29T17:20:21;9.75;;;2.60;;
51883;SDS011;37915;53.254;6.598;2022-12-29T17:22:48;10.60;;;2.42;;
51883;SDS011;37915;53.254;6.598;2022-12-29T17:25:16;13.55;;;3.63;;
51883;SDS011;37915;53.254;6.598;2022-12-29T17:27:45;13.55;;;2.97;;
51883;SDS011;37915;53.254;6.598;2022-12-29T17:30:21;8.77;;;2.05;;
51883;SDS011;37915;53.254;6.598;2022-12-29T17:32:52;5.65;;;2.13;;
51883;SDS011;37915;53.254;6.598;2022-12-29T17:37:47;7.60;;;1.80;;